Search for airport 
image banner adimage banner ad
image banner ad

SIUA - Fazenda Barra do Lagoa Airport

Located in Santa Rita Do Pardo, Brazil

ICAO - SIUA, IATA -

Data provided by Airmate  

General information

Coordinates: S30°7'10" W50°51'13"
Elevation is 118 feet MSL.
Magnetic variation is -17° East
View others Airports in Rio Grande do Sul

Operational data

Open for public use
Current time UTC:
Current local time:
Weather at : SBPA - Salgado Filho ( 34 km )
METAR: SBPA 290000Z 29004KT 270V330 CAVOK 17/13 Q1016
TAF: TAF SBPA 282200Z 2900/2924 27009KT 7000 SCT025 TN16/2909Z TX23/2917Z PROB40 2907/2911 2000 BR BKN004 BECMG 2912/2914 SCT025 RMK PEI
View NOTAMs / SUP AIP / TFR affecting this airport [VIEW]
Communications frequencies: [VIEW]

Runways:

RWY identifierQFULength (ft)Width (ft)SurfaceLDA (ft)
17147665GRASS
35147665GRASS

Airport contact information

Address: Santa Rita Do Pardo Brazil

Satellite view of SIUA